Aviation Digital Data Service (ADDS)

Output produced by METARs form (0501 UTC 21 September 2017)
found at http://www.aviationweather.gov/adds/metars/
 
TAF HADR 210400Z 2106/2212 18006KT 9999 SCT025 SCT080 
     BECMG 2106/2109 16004KT SCT025 
     BECMG 2112/2115 12006KT -TSRA FEW025CB SCT030 SCT080
       
HAAB 210500Z 19002KT 9999 BKN024 BKN070 14/13 Q1027
TAF HAAB 210400Z 2106/2212 32004KT 9999 SCT025 SCT080 
     BECMG 2106/2109 34004KT SCT025 
     TEMPO 2112/2118 12006KT 8000 TSRA/SHRA FEW025CB SCT030 BKN080